^^
Meteo Knjazevac Station Historical Data
 
Daily Summary for September 27, 2023 Units:  Metric    English   Both
Daily Weekly Monthly Yearly Custom
  Current: High: Low: Average:
Temperature: 15.4 °C 15.7 °C 14.4 °C 15.1 °C
Dew Point: 11.4 °C 12.2 °C 11.4 °C 11.8 °C
Humidity: 77% 86% 76.6% 81%
Wind Speed: 7.9km/h 10.6km/h 2.7km/h 6.6km/h
Wind Gust: 9.7km/h 12.9km/h - -
WindSE - - SE
Pressure: 1021.6 hPa 1022.2 hPa 1021.6 hPa -
Precipitation: 0 mm      
Historical Graphs
 
 
Tabular Data for September 27, 2023
Time Temperature Dew Point Pressure Wind Wind Speed Wind Gust Humidity Rainfall Rate (Hourly) solar Conditions
00:04 14.8 °C 12.2 °C 1021.9 hPa WNW 2.7 km/h 4.8 km/h 84.4% 0 mm 0 W/m2
00:09 14.8 °C 12.1 °C 1021.9 hPa WNW 4.5 km/h 4 km/h 84% 0 mm 0 W/m2
00:14 14.7 °C 12.2 °C 1021.9 hPa NW 5.6 km/h 5 km/h 84.8% 0 mm 0 W/m2
00:19 14.7 °C 12.1 °C 1022.2 hPa NW 5.3 km/h 6.4 km/h 84.5% 0 mm 0 W/m2
00:24 14.6 °C 11.9 °C 1022.2 hPa WSW 4.8 km/h 5 km/h 84.2% 0 mm 0 W/m2
00:29 14.4 °C 12.1 °C 1021.9 hPa NNW 4.8 km/h 6.4 km/h 86% 0 mm 0 W/m2
00:34 14.6 °C 12.2 °C 1021.9 hPa NNE 6.8 km/h 6.4 km/h 85.8% 0 mm 0 W/m2
00:39 14.7 °C 12 °C 1021.9 hPa NE 6.6 km/h 8 km/h 84% 0 mm 0 W/m2
00:44 14.8 °C 12.1 °C 1021.9 hPa NNE 9 km/h 11.3 km/h 84% 0 mm 0 W/m2
00:49 14.9 °C 12.1 °C 1021.9 hPa NNE 10.6 km/h 7.2 km/h 83.1% 0 mm 0 W/m2
00:54 15.1 °C 12.1 °C 1021.9 hPa NE 10.5 km/h 11.3 km/h 82.5% 0 mm 0 W/m2
00:59 15.2 °C 12.2 °C 1021.9 hPa NE 7.9 km/h 11.3 km/h 82% 0 mm 0 W/m2
01:04 15.2 °C 12.1 °C 1021.9 hPa NE 8.9 km/h 9.7 km/h 81.8% 0 mm 0 W/m2
01:09 15.2 °C 11.8 °C 1021.9 hPa NE 10.6 km/h 12.9 km/h 80.5% 0 mm 0 W/m2
01:14 15.4 °C 11.9 °C 1021.9 hPa NE 5.3 km/h 12.9 km/h 80% 0 mm 0 W/m2
01:19 15.4 °C 11.9 °C 1021.9 hPa NE 4.8 km/h 8 km/h 80% 0 mm 0 W/m2
01:24 15.3 °C 11.9 °C 1021.9 hPa NNW 6.4 km/h 9.7 km/h 80.7% 0 mm 0 W/m2
01:29 15.1 °C 11.7 °C 1021.9 hPa West 5.3 km/h 8 km/h 80% 0 mm 0 W/m2
01:34 15.1 °C 11.6 °C 1021.9 hPa SE 5.1 km/h 5.8 km/h 80.2% 0 mm 0 W/m2
01:39 15.1 °C 11.7 °C 1021.9 hPa ENE 6.3 km/h 8 km/h 80% 0 mm 0 W/m2
01:44 15.2 °C 11.6 °C 1021.9 hPa East 6.3 km/h 8 km/h 79.5% 0 mm 0 W/m2
01:49 15.3 °C 11.6 °C 1021.9 hPa East 7.7 km/h 8 km/h 78.6% 0 mm 0 W/m2
01:54 15.3 °C 11.4 °C 1021.6 hPa NNE 8.7 km/h 11.3 km/h 77.6% 0 mm 0 W/m2
01:59 15.5 °C 11.6 °C 1021.6 hPa NNE 5.5 km/h 9.7 km/h 77.5% 0 mm 0 W/m2
02:04 15.6 °C 11.6 °C 1021.6 hPa ENE 6.4 km/h 8 km/h 77.3% 0 mm 0 W/m2
02:09 15.7 °C 11.6 °C 1021.6 hPa East 6.1 km/h 8 km/h 76.6% 0 mm 0 W/m2
02:14 15.7 °C 11.6 °C 1021.6 hPa NNE 7.7 km/h 8 km/h 77% 0 mm 0 W/m2
02:19 15.4 °C 11.4 °C 1021.6 hPa SSW 4.7 km/h 9.7 km/h 77% 0 mm 0 W/m2
02:24 15.4 °C 11.4 °C 1021.6 hPa SE 7.9 km/h 9.7 km/h 77% 0 mm 0 W/m2
Knjazevac, Serbia
Compliments of Weather Underground - 2 mb